createdAt,value
2022-12-09T00:00:27.905Z,-1.83
2022-12-09T00:02:54.548Z,-1.79
2022-12-09T00:05:21.524Z,-1.72
2022-12-09T00:07:48.354Z,-1.96
2022-12-09T00:10:15.218Z,-1.96
2022-12-09T00:12:42.083Z,-1.99
2022-12-09T00:15:08.998Z,-1.92
2022-12-09T00:17:35.713Z,-1.94
2022-12-09T00:20:02.576Z,-2.01
2022-12-09T00:22:29.369Z,-2.08
2022-12-09T00:24:55.956Z,-2.08
2022-12-09T00:27:22.629Z,-2.15
2022-12-09T00:29:49.120Z,-2.17
2022-12-09T00:32:16.086Z,-2.09
2022-12-09T00:34:43.096Z,-2.02
2022-12-09T00:37:09.627Z,-2.08
2022-12-09T00:39:36.508Z,-2.11
2022-12-09T00:42:03.899Z,-2.08
2022-12-09T00:44:30.390Z,-1.99
2022-12-09T00:46:57.019Z,-2.02
2022-12-09T00:49:24.770Z,-2.05
2022-12-09T00:51:54.062Z,-2.05
2022-12-09T00:54:21.687Z,-2.01
2022-12-09T00:56:48.349Z,-2.03
2022-12-09T00:59:14.845Z,-2.02
2022-12-09T01:01:41.987Z,-2.06
2022-12-09T01:04:09.030Z,-2.20
2022-12-09T01:06:35.785Z,-2.25
2022-12-09T01:09:03.489Z,-2.28
2022-12-09T01:11:30.747Z,-2.26
2022-12-09T01:14:02.645Z,-2.33
2022-12-09T01:16:33.501Z,-2.36
2022-12-09T01:19:02.648Z,-2.32
2022-12-09T01:21:31.481Z,-2.31
2022-12-09T01:23:58.207Z,-2.35
2022-12-09T01:26:25.335Z,-2.40
2022-12-09T01:28:53.069Z,-2.37
2022-12-09T01:31:23.106Z,-2.30
2022-12-09T01:33:50.141Z,-2.29
2022-12-09T01:36:20.331Z,-2.24
2022-12-09T01:38:48.601Z,-2.29
2022-12-09T01:41:17.169Z,-2.37
2022-12-09T01:43:45.307Z,-2.34
2022-12-09T01:46:12.331Z,-2.34
2022-12-09T01:48:46.461Z,-2.32
2022-12-09T01:51:17.473Z,-2.35
2022-12-09T01:53:47.693Z,-2.36
2022-12-09T01:56:21.880Z,-2.37
2022-12-09T01:58:49.768Z,-2.41
2022-12-09T02:01:18.175Z,-2.45
2022-12-09T02:03:45.008Z,-2.52
2022-12-09T02:06:12.708Z,-2.58
2022-12-09T02:08:40.297Z,-2.55
2022-12-09T02:11:26.094Z,-2.57
2022-12-09T02:14:29.608Z,-2.61
2022-12-09T02:17:25.984Z,-2.62
2022-12-09T02:20:03.228Z,-2.65
2022-12-09T02:22:40.457Z,-2.69
2022-12-09T02:25:21.782Z,-2.77
2022-12-09T02:28:25.875Z,-2.83
2022-12-09T02:31:12.007Z,-2.83
2022-12-09T02:34:13.618Z,-2.77
2022-12-09T02:36:59.607Z,-2.72
2022-12-09T02:39:35.432Z,-2.74
2022-12-09T02:42:06.274Z,-2.76
2022-12-09T02:44:37.913Z,-2.75
2022-12-09T02:47:08.783Z,-2.81
2022-12-09T02:49:37.834Z,-2.86
2022-12-09T02:52:07.005Z,-2.88
2022-12-09T02:54:37.317Z,-2.82
2022-12-09T02:57:12.282Z,-2.88
2022-12-09T02:59:38.909Z,-2.89
2022-12-09T03:02:20.155Z,-2.93
2022-12-09T03:05:01.894Z,-2.90
2022-12-09T03:07:42.149Z,-2.98
2022-12-09T03:10:31.143Z,-3.06
2022-12-09T03:13:06.357Z,-3.17
2022-12-09T03:15:37.355Z,-3.21
2022-12-09T03:18:09.254Z,-3.18
2022-12-09T03:20:40.826Z,-3.11
2022-12-09T03:23:11.505Z,-3.08
2022-12-09T03:25:43.234Z,-3.13
2022-12-09T03:28:17.141Z,-3.02
2022-12-09T03:30:46.018Z,-3.09
2022-12-09T03:33:15.943Z,-3.07
2022-12-09T03:35:46.860Z,-3.04
2022-12-09T03:38:17.203Z,-3.00
2022-12-09T03:40:46.436Z,-3.02
2022-12-09T03:43:19.177Z,-2.99
2022-12-09T03:45:46.595Z,-3.04
2022-12-09T03:48:13.916Z,-3.08
2022-12-09T03:50:49.483Z,-2.99
2022-12-09T03:53:21.440Z,-3.04
2022-12-09T03:55:55.626Z,-3.05
2022-12-09T03:58:22.102Z,-3.07
2022-12-09T04:00:49.442Z,-3.05
2022-12-09T04:03:18.276Z,-2.97
2022-12-09T04:05:45.650Z,-2.95
2022-12-09T04:08:12.460Z,-2.92
2022-12-09T04:10:40.387Z,-2.89
2022-12-09T04:13:07.344Z,-2.91
2022-12-09T04:15:34.100Z,-2.93
2022-12-09T04:18:00.731Z,-2.96
2022-12-09T04:20:27.439Z,-3.00
2022-12-09T04:22:53.914Z,-3.02
2022-12-09T04:25:20.361Z,-3.03
2022-12-09T04:27:48.780Z,-3.10
2022-12-09T04:30:17.108Z,-3.10
2022-12-09T04:32:44.275Z,-3.14
2022-12-09T04:35:11.326Z,-3.20
2022-12-09T04:37:37.969Z,-3.26
2022-12-09T04:40:08.558Z,-3.28
2022-12-09T04:42:35.986Z,-3.30
2022-12-09T04:45:03.038Z,-3.35
2022-12-09T04:47:29.661Z,-3.41
2022-12-09T04:49:56.408Z,-3.37
2022-12-09T04:52:24.053Z,-3.37
2022-12-09T04:54:51.084Z,-3.36
2022-12-09T04:57:18.711Z,-3.40
2022-12-09T04:59:45.833Z,-3.38
2022-12-09T05:02:12.830Z,-3.33
2022-12-09T05:04:40.347Z,-3.32
2022-12-09T05:07:07.109Z,-3.32
2022-12-09T05:09:34.304Z,-3.31
2022-12-09T05:12:01.091Z,-3.33
2022-12-09T05:14:28.079Z,-3.33
2022-12-09T05:16:54.736Z,-3.26
2022-12-09T05:19:21.868Z,-3.25
2022-12-09T05:21:48.769Z,-3.30
2022-12-09T05:24:16.103Z,-3.28
2022-12-09T05:26:42.874Z,-3.27
2022-12-09T05:29:09.873Z,-3.20
2022-12-09T05:31:36.586Z,-3.10
2022-12-09T05:34:03.945Z,-3.10
2022-12-09T05:36:31.159Z,-3.07
2022-12-09T05:38:57.924Z,-2.99
2022-12-09T05:41:25.386Z,-2.96
2022-12-09T05:43:52.104Z,-3.00
2022-12-09T05:46:19.852Z,-3.02
2022-12-09T05:48:46.858Z,-2.95
2022-12-09T05:51:26.588Z,-2.93
2022-12-09T05:53:54.888Z,-2.95
2022-12-09T05:56:23.346Z,-2.84
2022-12-09T05:58:51.000Z,-2.81
2022-12-09T06:01:18.103Z,-2.75
2022-12-09T06:03:50.310Z,-2.72
2022-12-09T06:06:19.828Z,-2.70
2022-12-09T06:08:47.286Z,-2.70
2022-12-09T06:11:19.781Z,-2.70
2022-12-09T06:13:47.810Z,-2.76
2022-12-09T06:16:17.542Z,-2.77
2022-12-09T06:18:44.510Z,-2.80
2022-12-09T06:21:13.533Z,-2.90
2022-12-09T06:23:42.300Z,-2.92
2022-12-09T06:26:16.039Z,-2.96
2022-12-09T06:28:42.911Z,-2.98
2022-12-09T06:31:09.678Z,-3.01
2022-12-09T06:33:54.184Z,-3.09
2022-12-09T06:36:22.722Z,-3.07
2022-12-09T06:38:49.553Z,-3.06
2022-12-09T06:41:16.470Z,-3.02
2022-12-09T06:43:43.967Z,-3.04
2022-12-09T06:46:16.356Z,-3.12
2022-12-09T06:48:43.589Z,-3.22
2022-12-09T06:51:11.258Z,-3.30
2022-12-09T06:53:38.026Z,-3.30
2022-12-09T06:56:11.795Z,-3.29
2022-12-09T06:58:39.783Z,-3.29
2022-12-09T07:01:13.798Z,-3.27
2022-12-09T07:03:45.833Z,-3.35
2022-12-09T07:06:40.275Z,-3.39
2022-12-09T07:09:13.442Z,-3.28
2022-12-09T07:11:42.621Z,-3.30
2022-12-09T07:14:10.759Z,-3.23
2022-12-09T07:16:38.382Z,-3.24
2022-12-09T07:19:06.205Z,-3.14
2022-12-09T07:21:33.943Z,-3.14
2022-12-09T07:24:02.877Z,-3.22
2022-12-09T07:26:33.773Z,-3.26
2022-12-09T07:29:05.130Z,-3.24
2022-12-09T07:31:32.723Z,-3.21
2022-12-09T07:34:00.072Z,-3.13
2022-12-09T07:36:29.584Z,-3.09
2022-12-09T07:39:05.588Z,-3.04
2022-12-09T07:41:32.417Z,-2.99
2022-12-09T07:43:59.222Z,-2.96
2022-12-09T07:46:27.577Z,-2.99
2022-12-09T07:48:55.446Z,-3.02
2022-12-09T07:51:24.352Z,-3.10
2022-12-09T07:53:52.461Z,-3.10
2022-12-09T07:56:20.227Z,-3.15
2022-12-09T07:58:48.922Z,-3.13
2022-12-09T08:01:19.049Z,-3.11
2022-12-09T08:03:47.194Z,-3.15
2022-12-09T08:06:17.204Z,-3.13
2022-12-09T08:08:45.316Z,-3.13
2022-12-09T08:11:24.453Z,-3.13
2022-12-09T08:13:52.452Z,-3.16
2022-12-09T08:16:21.487Z,-3.07
2022-12-09T08:18:49.778Z,-2.97
2022-12-09T08:21:19.694Z,-2.99
2022-12-09T08:23:47.248Z,-2.95
2022-12-09T08:26:16.131Z,-2.91
2022-12-09T08:28:45.056Z,-2.86
2022-12-09T08:31:24.596Z,-2.83
2022-12-09T08:33:52.565Z,-2.77
2022-12-09T08:36:22.489Z,-2.73
2022-12-09T08:38:49.435Z,-2.76
2022-12-09T08:41:37.735Z,-2.81
2022-12-09T08:44:08.783Z,-2.81
2022-12-09T08:46:37.208Z,-2.83
2022-12-09T08:49:05.373Z,-2.84
2022-12-09T08:51:33.270Z,-2.83
2022-12-09T08:54:01.254Z,-2.81
2022-12-09T08:56:28.522Z,-2.72
2022-12-09T08:58:56.481Z,-2.70
2022-12-09T09:01:26.263Z,-2.67
2022-12-09T09:03:53.760Z,-2.62
2022-12-09T09:06:20.982Z,-2.52
2022-12-09T09:08:47.933Z,-2.47
2022-12-09T09:11:18.240Z,-2.42
2022-12-09T09:13:47.867Z,-2.40
2022-12-09T09:16:17.591Z,-2.31
2022-12-09T09:18:45.604Z,-2.25
2022-12-09T09:21:15.396Z,-2.20
2022-12-09T09:23:43.100Z,-2.15
2022-12-09T09:26:15.243Z,-2.07
2022-12-09T09:28:42.674Z,-1.95
2022-12-09T09:31:14.325Z,-1.87
2022-12-09T09:33:41.764Z,-1.76
2022-12-09T09:36:14.166Z,-1.65
2022-12-09T09:38:41.148Z,-1.59
2022-12-09T09:41:20.223Z,-1.51
2022-12-09T09:43:47.841Z,-1.41
2022-12-09T09:46:24.440Z,-1.34
2022-12-09T09:48:53.038Z,-1.25
2022-12-09T09:51:21.177Z,-1.26
2022-12-09T09:53:51.332Z,-1.24
2022-12-09T09:56:45.783Z,-1.17
2022-12-09T09:59:34.893Z,-1.02
2022-12-09T10:02:12.005Z,-1.03
2022-12-09T10:04:51.101Z,-1.02
2022-12-09T10:07:38.584Z,-0.97
2022-12-09T10:10:13.534Z,-0.92
2022-12-09T10:13:17.980Z,-0.88
2022-12-09T10:16:18.930Z,-0.76
2022-12-09T10:19:04.174Z,-0.73
2022-12-09T10:21:40.255Z,-0.73
2022-12-09T10:24:27.139Z,-0.71
2022-12-09T10:27:12.659Z,-0.72
2022-12-09T10:29:49.944Z,-0.71
2022-12-09T10:32:21.366Z,-0.68
2022-12-09T10:34:48.733Z,-0.62
2022-12-09T10:37:36.092Z,-0.59
2022-12-09T10:40:13.201Z,-0.60
2022-12-09T10:43:05.706Z,-0.61
2022-12-09T10:46:07.962Z,-0.57
2022-12-09T10:48:37.637Z,-0.50
2022-12-09T10:51:11.593Z,-0.43
2022-12-09T10:53:55.971Z,-0.38
2022-12-09T10:56:25.985Z,-0.39
2022-12-09T10:59:25.671Z,-0.30
2022-12-09T11:02:11.091Z,-0.24
2022-12-09T11:04:40.679Z,-0.25
2022-12-09T11:07:08.028Z,-0.17
2022-12-09T11:09:37.946Z,-0.07
2022-12-09T11:12:07.941Z,-0.02
2022-12-09T11:14:39.026Z,0.08
2022-12-09T11:17:24.311Z,0.10
2022-12-09T11:19:54.252Z,0.13
2022-12-09T11:22:28.316Z,0.15
2022-12-09T11:25:27.230Z,0.14
2022-12-09T11:27:59.077Z,0.11
2022-12-09T11:30:30.681Z,0.05
2022-12-09T11:33:08.770Z,0.14
2022-12-09T11:35:45.102Z,0.22
2022-12-09T11:38:23.030Z,0.11
2022-12-09T11:41:07.497Z,0.08
2022-12-09T11:43:54.284Z,0.14
2022-12-09T11:46:29.768Z,0.00
2022-12-09T11:49:03.186Z,0.12
2022-12-09T11:51:36.233Z,0.06
2022-12-09T11:54:22.038Z,0.08
2022-12-09T11:56:50.222Z,0.07
2022-12-09T11:59:22.505Z,0.06
2022-12-09T12:02:29.549Z,0.14
2022-12-09T12:05:03.462Z,0.18
2022-12-09T12:07:43.959Z,0.24
2022-12-09T12:10:22.488Z,0.30
2022-12-09T12:13:02.393Z,0.36
2022-12-09T12:15:46.997Z,0.41
2022-12-09T12:18:19.395Z,0.52
2022-12-09T12:21:07.752Z,0.54
2022-12-09T12:23:34.168Z,0.50
2022-12-09T12:26:15.926Z,0.54
2022-12-09T12:29:07.459Z,0.56
2022-12-09T12:31:59.316Z,0.59
2022-12-09T12:34:44.863Z,0.65
2022-12-09T12:37:57.436Z,0.76
2022-12-09T12:40:48.291Z,0.72
2022-12-09T12:43:48.955Z,0.73
2022-12-09T12:46:30.678Z,0.70
2022-12-09T12:49:15.886Z,0.72
2022-12-09T12:52:47.298Z,0.74
2022-12-09T12:55:43.737Z,0.75
2022-12-09T12:58:28.893Z,0.77
2022-12-09T13:01:01.153Z,0.78
2022-12-09T13:03:38.473Z,0.84
2022-12-09T13:06:08.968Z,0.83
2022-12-09T13:08:41.657Z,0.82
2022-12-09T13:11:16.879Z,0.83
2022-12-09T13:14:07.010Z,0.76
2022-12-09T13:16:41.262Z,0.80
2022-12-09T13:19:20.556Z,0.81
2022-12-09T13:21:47.789Z,0.78
2022-12-09T13:24:37.724Z,0.79
2022-12-09T13:27:24.222Z,0.77
2022-12-09T13:30:15.279Z,0.79
2022-12-09T13:33:08.427Z,0.76
2022-12-09T13:35:44.887Z,0.75
2022-12-09T13:38:32.690Z,0.73
2022-12-09T13:40:59.386Z,0.71
2022-12-09T13:43:28.527Z,0.72
2022-12-09T13:45:58.349Z,0.70
2022-12-09T13:48:24.774Z,0.67
2022-12-09T13:51:00.322Z,0.64
2022-12-09T13:53:33.635Z,0.63
2022-12-09T13:56:06.732Z,0.58
2022-12-09T13:59:12.858Z,0.52
2022-12-09T14:01:48.304Z,0.48
2022-12-09T14:04:31.200Z,0.45
2022-12-09T14:07:30.748Z,0.46
2022-12-09T14:09:58.035Z,0.44
2022-12-09T14:12:28.183Z,0.43
2022-12-09T14:15:05.018Z,0.41
2022-12-09T14:17:31.382Z,0.39
2022-12-09T14:20:23.851Z,0.34
2022-12-09T14:23:08.247Z,0.27
2022-12-09T14:25:34.582Z,0.24
2022-12-09T14:28:10.476Z,0.23
2022-12-09T14:31:04.802Z,0.20
2022-12-09T14:33:37.678Z,0.17
2022-12-09T14:36:24.446Z,0.09
2022-12-09T14:39:27.410Z,0.01
2022-12-09T14:42:18.387Z,-0.02
2022-12-09T14:45:08.947Z,-0.07
2022-12-09T14:47:42.015Z,-0.10
2022-12-09T14:50:15.780Z,-0.12
2022-12-09T14:53:01.934Z,-0.13
2022-12-09T14:55:30.303Z,-0.19
2022-12-09T14:57:59.927Z,-0.21
2022-12-09T15:00:39.009Z,-0.28
2022-12-09T15:03:33.289Z,-0.38
2022-12-09T15:06:05.921Z,-0.45
2022-12-09T15:08:37.961Z,-0.49
2022-12-09T15:11:13.786Z,-0.54
2022-12-09T15:13:43.048Z,-0.59
2022-12-09T15:16:12.818Z,-0.63
2022-12-09T15:18:42.084Z,-0.68
2022-12-09T15:21:09.355Z,-0.72
2022-12-09T15:23:39.018Z,-0.77
2022-12-09T15:26:18.276Z,-0.82
2022-12-09T15:28:48.619Z,-0.80
2022-12-09T15:31:21.236Z,-0.84
2022-12-09T15:33:52.769Z,-0.90
2022-12-09T15:36:27.292Z,-0.97
2022-12-09T15:39:02.165Z,-1.02
2022-12-09T15:42:03.702Z,-1.10
2022-12-09T15:44:33.411Z,-1.15
2022-12-09T15:47:08.465Z,-1.15
2022-12-09T15:49:45.524Z,-1.20
2022-12-09T15:52:16.883Z,-1.26
2022-12-09T15:54:44.623Z,-1.27
2022-12-09T15:57:16.551Z,-1.23
2022-12-09T15:59:47.759Z,-1.27
2022-12-09T16:02:25.255Z,-1.27
2022-12-09T16:04:54.971Z,-1.30
2022-12-09T16:07:25.095Z,-1.28
2022-12-09T16:10:09.157Z,-1.31
2022-12-09T16:12:36.540Z,-1.33
2022-12-09T16:15:05.692Z,-1.34
2022-12-09T16:17:37.840Z,-1.33
2022-12-09T16:20:44.008Z,-1.39
2022-12-09T16:23:24.899Z,-1.43
2022-12-09T16:25:55.246Z,-1.50
2022-12-09T16:28:27.239Z,-1.54
2022-12-09T16:31:02.697Z,-1.56
2022-12-09T16:33:34.110Z,-1.64
2022-12-09T16:36:03.933Z,-1.66
2022-12-09T16:38:32.678Z,-1.72
2022-12-09T16:41:08.544Z,-1.80
2022-12-09T16:43:35.935Z,-1.87
2022-12-09T16:46:28.237Z,-1.91
2022-12-09T16:48:54.634Z,-1.99
2022-12-09T16:51:24.876Z,-2.10
2022-12-09T16:53:53.539Z,-2.21
2022-12-09T16:56:28.822Z,-2.37
2022-12-09T16:58:56.496Z,-2.43
2022-12-09T17:01:31.752Z,-2.42
2022-12-09T17:04:02.541Z,-2.40
2022-12-09T17:06:29.085Z,-2.45
2022-12-09T17:08:56.306Z,-2.45
2022-12-09T17:11:22.903Z,-2.56
2022-12-09T17:13:50.141Z,-2.56
2022-12-09T17:16:17.397Z,-2.64
2022-12-09T17:18:44.257Z,-2.69
2022-12-09T17:21:13.131Z,-2.66
2022-12-09T17:23:41.276Z,-2.74
2022-12-09T17:26:13.338Z,-2.70
2022-12-09T17:28:42.935Z,-2.69
2022-12-09T17:31:19.460Z,-2.76
2022-12-09T17:33:46.128Z,-2.71
2022-12-09T17:36:14.497Z,-2.77
2022-12-09T17:38:42.745Z,-2.74
2022-12-09T17:41:13.364Z,-2.71
2022-12-09T17:43:39.818Z,-2.72
2022-12-09T17:46:06.871Z,-2.83
2022-12-09T17:48:35.561Z,-2.87
2022-12-09T17:51:10.900Z,-2.83
2022-12-09T17:53:39.232Z,-2.81
2022-12-09T17:56:20.145Z,-2.83
2022-12-09T17:58:48.005Z,-2.85
2022-12-09T18:01:19.932Z,-2.85
2022-12-09T18:03:55.928Z,-2.70
2022-12-09T18:06:22.771Z,-2.83
2022-12-09T18:08:49.494Z,-2.78
2022-12-09T18:11:16.166Z,-2.98
2022-12-09T18:13:42.850Z,-3.00
2022-12-09T18:16:16.060Z,-2.99
2022-12-09T18:18:43.539Z,-3.03
2022-12-09T18:21:15.552Z,-3.04
2022-12-09T18:23:43.133Z,-3.05
2022-12-09T18:26:13.066Z,-2.99
2022-12-09T18:28:40.023Z,-3.02
2022-12-09T18:31:15.368Z,-2.87
2022-12-09T18:33:43.166Z,-2.92
2022-12-09T18:36:13.473Z,-2.98
2022-12-09T18:38:41.790Z,-3.02
2022-12-09T18:41:13.645Z,-2.99
2022-12-09T18:43:43.045Z,-2.90
2022-12-09T18:46:16.092Z,-2.98
2022-12-09T18:48:43.474Z,-2.98
2022-12-09T18:51:18.811Z,-3.01
2022-12-09T18:53:46.160Z,-3.05
2022-12-09T18:56:13.850Z,-3.07
2022-12-09T18:59:04.860Z,-3.10
2022-12-09T19:01:29.961Z,-2.97
2022-12-09T19:04:00.202Z,-2.89
2022-12-09T19:06:32.953Z,-2.92
2022-12-09T19:09:02.461Z,-2.87
2022-12-09T19:11:32.551Z,-2.86
2022-12-09T19:13:59.762Z,-2.90
2022-12-09T19:16:27.772Z,-2.87
2022-12-09T19:18:54.574Z,-2.86
2022-12-09T19:21:22.792Z,-2.89
2022-12-09T19:23:49.799Z,-2.88
2022-12-09T19:26:19.506Z,-2.91
2022-12-09T19:28:48.865Z,-2.90
2022-12-09T19:31:25.010Z,-2.85
2022-12-09T19:33:55.833Z,-2.81
2022-12-09T19:36:23.591Z,-2.77
2022-12-09T19:38:50.891Z,-2.73
2022-12-09T19:41:18.449Z,-2.67
2022-12-09T19:43:46.104Z,-2.64
2022-12-09T19:46:14.562Z,-2.55
2022-12-09T19:48:46.739Z,-2.53
2022-12-09T19:51:16.207Z,-2.53
2022-12-09T19:53:43.745Z,-2.51
2022-12-09T19:56:20.504Z,-2.43
2022-12-09T19:58:47.447Z,-2.40
2022-12-09T20:01:20.795Z,-2.36
2022-12-09T20:03:49.916Z,-2.30
2022-12-09T20:06:19.616Z,-2.25
2022-12-09T20:08:47.159Z,-2.21
2022-12-09T20:11:19.764Z,-2.19
2022-12-09T20:13:46.723Z,-2.15
2022-12-09T20:16:16.344Z,-2.15
2022-12-09T20:18:43.790Z,-2.19
2022-12-09T20:21:13.034Z,-2.14
2022-12-09T20:23:41.073Z,-2.10
2022-12-09T20:26:12.001Z,-2.07
2022-12-09T20:28:40.054Z,-2.02
2022-12-09T20:31:08.859Z,-2.00
2022-12-09T20:33:36.273Z,-1.96
2022-12-09T20:36:12.305Z,-1.86
2022-12-09T20:38:39.957Z,-1.80
2022-12-09T20:41:09.899Z,-1.73
2022-12-09T20:43:40.353Z,-1.74
2022-12-09T20:46:09.270Z,-1.72
2022-12-09T20:48:36.929Z,-1.66
2022-12-09T20:51:08.385Z,-1.70
2022-12-09T20:53:35.946Z,-1.65
2022-12-09T20:56:03.859Z,-1.61
2022-12-09T20:58:30.597Z,-1.54
2022-12-09T21:01:04.827Z,-1.53
2022-12-09T21:03:31.324Z,-1.55
2022-12-09T21:05:58.438Z,-1.56
2022-12-09T21:08:31.080Z,-1.52
2022-12-09T21:11:04.260Z,-1.56
2022-12-09T21:13:31.146Z,-1.51
2022-12-09T21:16:10.081Z,-1.56
2022-12-09T21:18:37.063Z,-1.54
2022-12-09T21:21:04.477Z,-1.55
2022-12-09T21:23:34.909Z,-1.53
2022-12-09T21:26:21.549Z,-1.53
2022-12-09T21:28:48.687Z,-1.60
2022-12-09T21:31:18.284Z,-1.64
2022-12-09T21:33:46.231Z,-1.57
2022-12-09T21:36:15.425Z,-1.64
2022-12-09T21:38:42.570Z,-1.65
2022-12-09T21:41:15.711Z,-1.63
2022-12-09T21:43:43.428Z,-1.60
2022-12-09T21:46:20.828Z,-1.61
2022-12-09T21:48:51.998Z,-1.61
2022-12-09T21:51:19.708Z,-1.63
2022-12-09T21:53:46.985Z,-1.55
2022-12-09T21:56:26.643Z,-1.56
2022-12-09T21:58:55.559Z,-1.60
2022-12-09T22:01:23.607Z,-1.57
2022-12-09T22:03:50.329Z,-1.48
2022-12-09T22:06:17.632Z,-1.54
2022-12-09T22:08:45.453Z,-1.44
2022-12-09T22:11:18.758Z,-1.58
2022-12-09T22:13:45.974Z,-1.60
2022-12-09T22:16:24.279Z,-1.54
2022-12-09T22:18:53.530Z,-1.55
2022-12-09T22:21:25.227Z,-1.58
2022-12-09T22:23:58.333Z,-1.54
2022-12-09T22:26:25.815Z,-1.50
2022-12-09T22:28:52.929Z,-1.50
2022-12-09T22:31:25.678Z,-1.48
2022-12-09T22:33:54.508Z,-1.45
2022-12-09T22:36:22.299Z,-1.45
2022-12-09T22:38:49.581Z,-1.41
2022-12-09T22:41:19.828Z,-1.41
2022-12-09T22:43:46.428Z,-1.49
2022-12-09T22:46:17.567Z,-1.46
2022-12-09T22:48:44.451Z,-1.44
2022-12-09T22:51:16.367Z,-1.45
2022-12-09T22:53:43.616Z,-1.45
2022-12-09T22:56:12.342Z,-1.40
2022-12-09T22:58:39.398Z,-1.46
2022-12-09T23:01:12.184Z,-1.43
2022-12-09T23:03:39.135Z,-1.48
2022-12-09T23:06:06.347Z,-1.45
2022-12-09T23:08:33.130Z,-1.48
2022-12-09T23:11:05.119Z,-1.42
2022-12-09T23:13:33.894Z,-1.37
2022-12-09T23:16:05.687Z,-1.44
2022-12-09T23:18:33.888Z,-1.44
2022-12-09T23:21:12.181Z,-1.42
2022-12-09T23:23:39.808Z,-1.41
2022-12-09T23:26:09.331Z,-1.46
2022-12-09T23:28:41.180Z,-1.45
2022-12-09T23:31:10.039Z,-1.44
2022-12-09T23:33:38.621Z,-1.48
2022-12-09T23:36:07.617Z,-1.38
2022-12-09T23:38:35.098Z,-1.37
2022-12-09T23:41:02.389Z,-1.46
2022-12-09T23:43:36.983Z,-1.49
2022-12-09T23:46:14.476Z,-1.48
2022-12-09T23:48:42.740Z,-1.42
2022-12-09T23:51:16.577Z,-1.43
2022-12-09T23:53:44.655Z,-1.42
2022-12-09T23:56:15.741Z,-1.43
2022-12-09T23:58:43.264Z,-1.40
